Calypso — IYQT — position and weather

sailwx.info

Track history (hours):
 
Tides and Currents Weather Stations Pressure Air Temp Water Temp Dewpoint Dewpoint Depression Visibility Wind Speed Wind Dir Waves Ship Positions

Calypso

Last reported at 2015-Jan-26 14:18 UTC. Time now 2015-Mar-06 04:01 UTC.
Position N 38°01' E 012°31'.
Warning: this ship's position is 38 days out of date.

Length 31 m; draft 4.2 m.

MMSI: 247143200.

Date/timePositionNaut miles runAvg speedWind from/ knotsBaromVisibWave heightAir tempDewpointWater temp
2015-Jan-26 14:18N 38°01' E 012°31'0 0.7
2015-Jan-26 13:33N 38°01' E 012°31'0 0.0
2015-Jan-26 12:33N 38°01' E 012°31'0 0.0
2015-Jan-26 11:33N 38°01' E 012°31'0 0.4
2015-Jan-26 10:33N 38°01' E 012°30'8 7.8
2015-Jan-26 09:33N 37°59' E 012°20'1110.8
2015-Jan-26 08:33N 37°58' E 012°07'1818.3
2015-Jan-26 07:33N 38°00' E 012°30'8 8.0
2015-Jan-26 06:33N 37°58' E 012°20'2 2.0
2015-Jan-26 05:33N 37°58' E 012°23'7 7.0
2015-Jan-26 04:33N 38°01' E 012°31'0 0.0
2015-Jan-25 18:30N 38°01' E 012°31'3 2.8
2015-Jan-25 17:33N 37°59' E 012°28'6 5.7
2015-Jan-25 16:33N 37°59' E 012°20'1111.0
2015-Jan-25 15:33N 37°57' E 012°07'1616.4
2015-Jan-25 14:34N 37°59' E 012°27'3 3.4
2015-Jan-25 13:34N 38°01' E 012°31'1010.0
2015-Jan-25 12:33N 37°56' E 012°20'1010.1
2015-Jan-25 11:33N 38°01' E 012°31'3 3.3
2015-Jan-25 10:34N 37°59' E 012°27'7 6.8
2015-Jan-25 09:33N 37°56' E 012°19'1110.4
2015-Jan-25 08:33N 37°58' E 012°06'1818.0
2015-Jan-25 07:33N 37°60' E 012°29'6 6.4
2015-Jan-25 06:33N 37°58' E 012°21'2 1.7
2015-Jan-25 05:34N 37°57' E 012°22'8 8.1
2015-Jan-25 04:33N 38°01' E 012°31'0 0.0
2015-Jan-24 17:10N 38°01' E 012°31'814.0
2015-Jan-24 16:33N 37°57' E 012°21'2 1.6
2015-Jan-24 15:33N 37°58' E 012°20'4 4.5
2015-Jan-24 14:33N 37°59' E 012°26'4 4.3
2015-Jan-24 13:33N 38°01' E 012°31'1010.0
2015-Jan-24 12:34N 37°56' E 012°20'1010.0
2015-Jan-24 11:33N 38°01' E 012°31'0 0.0
2015-Jan-24 10:33N 38°01' E 012°31'0 0.0
2015-Jan-24 09:33N 38°01' E 012°31'0 0.0
2015-Jan-24 08:33N 38°01' E 012°31'0 0.0
2015-Jan-24 07:33N 38°01' E 012°31'0 0.0
2015-Jan-24 06:33N 38°01' E 012°31'0 0.0
2015-Jan-24 05:33N 38°01' E 012°31'0 0.0
2015-Jan-24 04:33N 38°01' E 012°31'0 0.0
2015-Jan-23 16:33N 38°01' E 012°31'0 0.0
2015-Jan-23 15:33N 38°01' E 012°31'0 0.0
2015-Jan-23 14:33N 38°01' E 012°31'0 0.1
2015-Jan-23 13:33N 38°01' E 012°31'10 9.9
2015-Jan-23 12:33N 37°56' E 012°20'1010.0
2015-Jan-23 11:33N 38°01' E 012°31'0 0.0
2015-Jan-23 10:33N 38°01' E 012°31'8 7.7
2015-Jan-23 09:33N 37°57' E 012°22'3 2.5
2015-Jan-23 08:33N 37°59' E 012°21'8 8.2
2015-Jan-23 07:33N 38°01' E 012°31'9 8.9
2015-Jan-23 06:33N 37°58' E 012°20'3 2.6
2015-Jan-23 05:33N 37°57' E 012°23'7 7.1
2015-Jan-23 04:33N 38°01' E 012°31'0 0.0
2015-Jan-22 18:12N 38°01' E 012°31'1015.8
2015-Jan-22 17:34N 37°56' E 012°20'3 2.8
2015-Jan-22 16:33N 37°57' E 012°23'1414.2
2015-Jan-22 15:34N 37°58' E 012°05'1717.4
2015-Jan-22 14:34N 37°59' E 012°27'4 3.7
2015-Jan-22 13:33N 38°01' E 012°31'1010.1
2015-Jan-22 12:33N 37°56' E 012°20'1010.1
2015-Jan-22 11:33N 38°01' E 012°31'6 6.4
2015-Jan-22 10:33N 37°59' E 012°23'4 3.8
2015-Jan-22 09:33N 37°56' E 012°20'6 5.6
2015-Jan-22 08:27N 37°58' E 012°12'1415.6
2015-Jan-22 07:33N 38°00' E 012°30'7 7.5
2015-Jan-22 06:34N 37°59' E 012°21'2 2.0
2015-Jan-22 05:34N 37°57' E 012°22'1413.6
2015-Jan-22 04:33N 37°58' E 012°05'0 0.0
2015-Jan-21 18:20N 37°58' E 012°05'1215.2
2015-Jan-21 17:33N 37°56' E 012°20'2 1.5
2015-Jan-21 16:33N 37°57' E 012°21'1312.5
2015-Jan-21 15:33N 37°58' E 012°05'1817.9
2015-Jan-21 14:33N 37°59' E 012°28'3 2.9
2015-Jan-21 13:33N 38°01' E 012°31'1010.0
2015-Jan-21 12:33N 37°56' E 012°20'1010.0
2015-Jan-21 11:33N 38°01' E 012°31'6 6.5
2015-Jan-21 10:34N 37°59' E 012°23'3 2.8
2015-Jan-21 09:33N 37°57' E 012°21'1111.4
2015-Jan-21 08:34N 37°58' E 012°06'1717.3
2015-Jan-21 07:33N 37°60' E 012°28'6 6.3
2015-Jan-21 06:34N 37°58' E 012°20'2 1.8
2015-Jan-21 05:33N 37°57' E 012°22'1413.8
2015-Jan-21 04:33N 37°58' E 012°05'0 0.0
2015-Jan-20 18:21N 37°58' E 012°05'1215.0
2015-Jan-20 17:33N 37°56' E 012°20'2 2.0
2015-Jan-20 16:33N 37°57' E 012°22'1313.0
2015-Jan-20 15:33N 37°58' E 012°05'1817.6
2015-Jan-20 14:33N 37°59' E 012°27'3 2.9
2015-Jan-20 13:33N 38°01' E 012°31'1010.1
2015-Jan-20 12:33N 37°56' E 012°20'1010.0
2015-Jan-20 11:33N 38°01' E 012°31'5 5.0
2015-Jan-20 10:33N 37°58' E 012°25'5 5.1
2015-Jan-20 09:33N 37°56' E 012°19'8 8.2
2015-Jan-20 08:33N 37°59' E 012°10'1616.5
2015-Jan-20 07:34N 38°01' E 012°30'8 7.9
2015-Jan-20 06:33N 37°59' E 012°20'3 3.1
2015-Jan-20 05:33N 37°56' E 012°19'1211.2
2015-Jan-20 04:29N 37°58' E 012°05'0 0.0
2015-Jan-19 18:18N 37°58' E 012°05'1216.1
2015-Jan-19 17:33N 37°56' E 012°20'2 1.9
2015-Jan-19 16:34N 37°57' E 012°21'1313.3
2015-Jan-19 15:33N 37°58' E 012°05'1919.1
2015-Jan-19 14:33N 37°60' E 012°29'2 1.8
2015-Jan-19 13:33N 38°01' E 012°31'1010.1
2015-Jan-19 12:33N 37°56' E 012°20'1010.0
2015-Jan-19 11:33N 38°01' E 012°31'6 5.9
2015-Jan-19 10:34N 37°59' E 012°24'4 3.8
2015-Jan-19 09:33N 37°56' E 012°20'1110.7
2015-Jan-19 08:34N 37°58' E 012°06'1818.3
2015-Jan-19 07:33N 38°00' E 012°30'7 7.2
2015-Jan-19 06:33N 37°59' E 012°21'3 2.6
2015-Jan-19 05:33N 37°57' E 012°21'9 8.9
2015-Jan-19 04:33N 38°01' E 012°31'0 0.0
2015-Jan-18 18:23N 38°01' E 012°31'1012.0
2015-Jan-18 17:33N 37°56' E 012°20'1 0.7
2015-Jan-18 16:33N 37°56' E 012°20'1212.4
2015-Jan-18 15:33N 37°58' E 012°05'1918.5
2015-Jan-18 14:33N 37°60' E 012°28'2 2.5
2015-Jan-18 13:33N 38°01' E 012°31'1010.0
2015-Jan-18 12:33N 37°56' E 012°20'1010.0
2015-Jan-18 11:33N 38°01' E 012°31'5 4.8
2015-Jan-18 10:34N 37°58' E 012°25'3 2.7
2015-Jan-18 09:33N 37°58' E 012°22'1212.3
2015-Jan-18 08:33N 37°58' E 012°06'1717.1
2015-Jan-18 07:33N 37°60' E 012°28'6 6.4
2015-Jan-18 06:33N 37°58' E 012°20'1 1.4
2015-Jan-18 05:33N 37°57' E 012°21'1313.1
2015-Jan-18 04:32N 37°58' E 012°05'0 0.0
2015-Jan-17 18:23N 37°58' E 012°05'1214.2
2015-Jan-17 17:33N 37°56' E 012°20'1 1.3
2015-Jan-17 16:33N 37°57' E 012°21'1312.8
2015-Jan-17 15:34N 37°58' E 012°05'1817.8
2015-Jan-17 14:33N 37°59' E 012°27'3 3.2
2015-Jan-17 13:34N 38°01' E 012°31'1010.0
2015-Jan-17 12:33N 37°56' E 012°20'1010.0
2015-Jan-17 11:33N 38°01' E 012°31'5 5.4
2015-Jan-17 10:33N 37°58' E 012°24'2 2.0
2015-Jan-17 09:33N 37°57' E 012°22'1313.1
2015-Jan-17 08:33N 37°58' E 012°06'1818.0
2015-Jan-17 07:33N 37°60' E 012°29'7 7.2
2015-Jan-17 06:33N 37°58' E 012°20'2 2.3
2015-Jan-17 05:33N 37°57' E 012°23'7 7.2
2015-Jan-17 04:33N 38°01' E 012°31'0 0.0
2015-Jan-16 18:15N 38°01' E 012°31'1014.3
2015-Jan-16 17:33N 37°56' E 012°20'2 1.8
2015-Jan-16 16:34N 37°57' E 012°21'2 2.2
2015-Jan-16 15:33N 37°59' E 012°21'7 7.3
2015-Jan-16 14:33N 38°00' E 012°30'  
Track history (hours):
 
Tides and Currents Weather Stations Pressure Air Temp Water Temp Dewpoint Dewpoint Depression Visibility Wind Speed Wind Dir Waves Ship Positions

Calypso

Last reported at 2015-Jan-26 14:18 UTC. Time now 2015-Mar-06 04:01 UTC.
Position N 38°01' E 012°31'.
Warning: this ship's position is 38 days out of date.

Length 31 m; draft 4.2 m.

MMSI: 247143200.

Date/timePositionNaut miles runAvg speedWind from/ knotsBaromVisibWave heightAir tempDewpointWater temp
2015-Jan-26 14:18N 38°01' E 012°31'0 0.7
2015-Jan-26 13:33N 38°01' E 012°31'0 0.0
2015-Jan-26 12:33N 38°01' E 012°31'0 0.0
2015-Jan-26 11:33N 38°01' E 012°31'0 0.4
2015-Jan-26 10:33N 38°01' E 012°30'8 7.8
2015-Jan-26 09:33N 37°59' E 012°20'1110.8
2015-Jan-26 08:33N 37°58' E 012°07'1818.3
2015-Jan-26 07:33N 38°00' E 012°30'8 8.0
2015-Jan-26 06:33N 37°58' E 012°20'2 2.0
2015-Jan-26 05:33N 37°58' E 012°23'7 7.0
2015-Jan-26 04:33N 38°01' E 012°31'0 0.0
2015-Jan-25 18:30N 38°01' E 012°31'3 2.8
2015-Jan-25 17:33N 37°59' E 012°28'6 5.7
2015-Jan-25 16:33N 37°59' E 012°20'1111.0
2015-Jan-25 15:33N 37°57' E 012°07'1616.4
2015-Jan-25 14:34N 37°59' E 012°27'3 3.4
2015-Jan-25 13:34N 38°01' E 012°31'1010.0
2015-Jan-25 12:33N 37°56' E 012°20'1010.1
2015-Jan-25 11:33N 38°01' E 012°31'3 3.3
2015-Jan-25 10:34N 37°59' E 012°27'7 6.8
2015-Jan-25 09:33N 37°56' E 012°19'1110.4
2015-Jan-25 08:33N 37°58' E 012°06'1818.0
2015-Jan-25 07:33N 37°60' E 012°29'6 6.4
2015-Jan-25 06:33N 37°58' E 012°21'2 1.7
2015-Jan-25 05:34N 37°57' E 012°22'8 8.1
2015-Jan-25 04:33N 38°01' E 012°31'0 0.0
2015-Jan-24 17:10N 38°01' E 012°31'814.0
2015-Jan-24 16:33N 37°57' E 012°21'2 1.6
2015-Jan-24 15:33N 37°58' E 012°20'4 4.5
2015-Jan-24 14:33N 37°59' E 012°26'4 4.3
2015-Jan-24 13:33N 38°01' E 012°31'1010.0
2015-Jan-24 12:34N 37°56' E 012°20'1010.0
2015-Jan-24 11:33N 38°01' E 012°31'0 0.0
2015-Jan-24 10:33N 38°01' E 012°31'0 0.0
2015-Jan-24 09:33N 38°01' E 012°31'0 0.0
2015-Jan-24 08:33N 38°01' E 012°31'0 0.0
2015-Jan-24 07:33N 38°01' E 012°31'0 0.0
2015-Jan-24 06:33N 38°01' E 012°31'0 0.0
2015-Jan-24 05:33N 38°01' E 012°31'0 0.0
2015-Jan-24 04:33N 38°01' E 012°31'0 0.0
2015-Jan-23 16:33N 38°01' E 012°31'0 0.0
2015-Jan-23 15:33N 38°01' E 012°31'0 0.0
2015-Jan-23 14:33N 38°01' E 012°31'0 0.1
2015-Jan-23 13:33N 38°01' E 012°31'10 9.9
2015-Jan-23 12:33N 37°56' E 012°20'1010.0
2015-Jan-23 11:33N 38°01' E 012°31'0 0.0
2015-Jan-23 10:33N 38°01' E 012°31'8 7.7
2015-Jan-23 09:33N 37°57' E 012°22'3 2.5
2015-Jan-23 08:33N 37°59' E 012°21'8 8.2
2015-Jan-23 07:33N 38°01' E 012°31'9 8.9
2015-Jan-23 06:33N 37°58' E 012°20'3 2.6
2015-Jan-23 05:33N 37°57' E 012°23'7 7.1
2015-Jan-23 04:33N 38°01' E 012°31'0 0.0
2015-Jan-22 18:12N 38°01' E 012°31'1015.8
2015-Jan-22 17:34N 37°56' E 012°20'3 2.8
2015-Jan-22 16:33N 37°57' E 012°23'1414.2
2015-Jan-22 15:34N 37°58' E 012°05'1717.4
2015-Jan-22 14:34N 37°59' E 012°27'4 3.7
2015-Jan-22 13:33N 38°01' E 012°31'1010.1
2015-Jan-22 12:33N 37°56' E 012°20'1010.1
2015-Jan-22 11:33N 38°01' E 012°31'6 6.4
2015-Jan-22 10:33N 37°59' E 012°23'4 3.8
2015-Jan-22 09:33N 37°56' E 012°20'6 5.6
2015-Jan-22 08:27N 37°58' E 012°12'1415.6
2015-Jan-22 07:33N 38°00' E 012°30'7 7.5
2015-Jan-22 06:34N 37°59' E 012°21'2 2.0
2015-Jan-22 05:34N 37°57' E 012°22'1413.6
2015-Jan-22 04:33N 37°58' E 012°05'0 0.0
2015-Jan-21 18:20N 37°58' E 012°05'1215.2
2015-Jan-21 17:33N 37°56' E 012°20'2 1.5
2015-Jan-21 16:33N 37°57' E 012°21'1312.5
2015-Jan-21 15:33N 37°58' E 012°05'1817.9
2015-Jan-21 14:33N 37°59' E 012°28'3 2.9
2015-Jan-21 13:33N 38°01' E 012°31'1010.0
2015-Jan-21 12:33N 37°56' E 012°20'1010.0
2015-Jan-21 11:33N 38°01' E 012°31'6 6.5
2015-Jan-21 10:34N 37°59' E 012°23'3 2.8
2015-Jan-21 09:33N 37°57' E 012°21'1111.4
2015-Jan-21 08:34N 37°58' E 012°06'1717.3
2015-Jan-21 07:33N 37°60' E 012°28'6 6.3
2015-Jan-21 06:34N 37°58' E 012°20'2 1.8
2015-Jan-21 05:33N 37°57' E 012°22'1413.8
2015-Jan-21 04:33N 37°58' E 012°05'0 0.0
2015-Jan-20 18:21N 37°58' E 012°05'1215.0
2015-Jan-20 17:33N 37°56' E 012°20'2 2.0
2015-Jan-20 16:33N 37°57' E 012°22'1313.0
2015-Jan-20 15:33N 37°58' E 012°05'1817.6
2015-Jan-20 14:33N 37°59' E 012°27'3 2.9
2015-Jan-20 13:33N 38°01' E 012°31'1010.1
2015-Jan-20 12:33N 37°56' E 012°20'1010.0
2015-Jan-20 11:33N 38°01' E 012°31'5 5.0
2015-Jan-20 10:33N 37°58' E 012°25'5 5.1
2015-Jan-20 09:33N 37°56' E 012°19'8 8.2
2015-Jan-20 08:33N 37°59' E 012°10'1616.5
2015-Jan-20 07:34N 38°01' E 012°30'8 7.9
2015-Jan-20 06:33N 37°59' E 012°20'3 3.1
2015-Jan-20 05:33N 37°56' E 012°19'1211.2
2015-Jan-20 04:29N 37°58' E 012°05'0 0.0
2015-Jan-19 18:18N 37°58' E 012°05'1216.1
2015-Jan-19 17:33N 37°56' E 012°20'2 1.9
2015-Jan-19 16:34N 37°57' E 012°21'1313.3
2015-Jan-19 15:33N 37°58' E 012°05'1919.1
2015-Jan-19 14:33N 37°60' E 012°29'2 1.8
2015-Jan-19 13:33N 38°01' E 012°31'1010.1
2015-Jan-19 12:33N 37°56' E 012°20'1010.0
2015-Jan-19 11:33N 38°01' E 012°31'6 5.9
2015-Jan-19 10:34N 37°59' E 012°24'4 3.8
2015-Jan-19 09:33N 37°56' E 012°20'1110.7
2015-Jan-19 08:34N 37°58' E 012°06'1818.3
2015-Jan-19 07:33N 38°00' E 012°30'7 7.2
2015-Jan-19 06:33N 37°59' E 012°21'3 2.6
2015-Jan-19 05:33N 37°57' E 012°21'9 8.9
2015-Jan-19 04:33N 38°01' E 012°31'0 0.0
2015-Jan-18 18:23N 38°01' E 012°31'1012.0
2015-Jan-18 17:33N 37°56' E 012°20'1 0.7
2015-Jan-18 16:33N 37°56' E 012°20'1212.4
2015-Jan-18 15:33N 37°58' E 012°05'1918.5
2015-Jan-18 14:33N 37°60' E 012°28'2 2.5
2015-Jan-18 13:33N 38°01' E 012°31'1010.0
2015-Jan-18 12:33N 37°56' E 012°20'1010.0
2015-Jan-18 11:33N 38°01' E 012°31'5 4.8
2015-Jan-18 10:34N 37°58' E 012°25'3 2.7
2015-Jan-18 09:33N 37°58' E 012°22'1212.3
2015-Jan-18 08:33N 37°58' E 012°06'1717.1
2015-Jan-18 07:33N 37°60' E 012°28'6 6.4
2015-Jan-18 06:33N 37°58' E 012°20'1 1.4
2015-Jan-18 05:33N 37°57' E 012°21'1313.1
2015-Jan-18 04:32N 37°58' E 012°05'0 0.0
2015-Jan-17 18:23N 37°58' E 012°05'1214.2
2015-Jan-17 17:33N 37°56' E 012°20'1 1.3
2015-Jan-17 16:33N 37°57' E 012°21'1312.8
2015-Jan-17 15:34N 37°58' E 012°05'1817.8
2015-Jan-17 14:33N 37°59' E 012°27'3 3.2
2015-Jan-17 13:34N 38°01' E 012°31'1010.0
2015-Jan-17 12:33N 37°56' E 012°20'1010.0
2015-Jan-17 11:33N 38°01' E 012°31'5 5.4
2015-Jan-17 10:33N 37°58' E 012°24'2 2.0
2015-Jan-17 09:33N 37°57' E 012°22'1313.1
2015-Jan-17 08:33N 37°58' E 012°06'1818.0
2015-Jan-17 07:33N 37°60' E 012°29'7 7.2
2015-Jan-17 06:33N 37°58' E 012°20'2 2.3
2015-Jan-17 05:33N 37°57' E 012°23'7 7.2
2015-Jan-17 04:33N 38°01' E 012°31'0 0.0
2015-Jan-16 18:15N 38°01' E 012°31'1014.3
2015-Jan-16 17:33N 37°56' E 012°20'2 1.8
2015-Jan-16 16:34N 37°57' E 012°21'2 2.2
2015-Jan-16 15:33N 37°59' E 012°21'7 7.3
2015-Jan-16 14:33N 38°00' E 012°30'  

Dump ship's entire track history